Time;durP1;ratioP1;P1;durP2;ratioP2;P2;SDS_P1;SDS_P2;PMS_P1;PMS_P2;Temp;Humidity;BMP_temperature;BMP_pressure;BME280_temperature;BME280_humidity;BME280_pressure;Samples;Min_cycle;Max_cycle;Signal;HPM_P1;HPM_P2
2022/04/19 00:01:37;;;;;;;6.07;4.90;;;13.10;70.40;;;;;;5103513;28;20023;-42
2022/04/19 00:04:03;;;;;;;7.15;5.43;;;13.10;70.30;;;;;;5093955;28;20024;-42
2022/04/19 00:06:28;;;;;;;6.38;5.30;;;13.10;70.10;;;;;;5104218;28;20030;-42
2022/04/19 00:08:56;;;;;;;7.03;5.22;;;13.10;70.10;;;;;;5092302;28;20501;-41
2022/04/19 00:11:22;;;;;;;6.53;5.60;;;13.00;70.00;;;;;;5104902;28;20043;-42
2022/04/19 00:13:47;;;;;;;6.75;5.65;;;13.00;70.00;;;;;;5095748;28;20376;-41
2022/04/19 00:16:14;;;;;;;7.38;4.97;;;13.00;69.90;;;;;;5108894;28;20024;-41
2022/04/19 00:18:40;;;;;;;5.15;4.65;;;13.00;70.00;;;;;;5096394;28;20577;-41
2022/04/19 00:21:05;;;;;;;6.55;5.20;;;13.00;70.00;;;;;;5106718;28;20020;-42
2022/04/19 00:23:31;;;;;;;6.70;5.53;;;12.90;69.90;;;;;;5100513;28;20078;-41
2022/04/19 00:25:56;;;;;;;6.90;4.95;;;12.90;69.90;;;;;;5103726;28;20459;-38
2022/04/19 00:28:26;;;;;;;7.28;5.63;;;12.90;69.90;;;;;;5103349;28;20479;-43
2022/04/19 00:30:52;;;;;;;6.95;5.20;;;12.80;69.80;;;;;;5101917;28;20036;-41
2022/04/19 00:33:17;;;;;;;5.97;5.38;;;12.80;69.80;;;;;;5104899;28;20073;-41
2022/04/19 00:35:43;;;;;;;6.25;5.25;;;12.80;69.80;;;;;;5098654;28;20031;-41
2022/04/19 00:38:09;;;;;;;7.97;5.72;;;12.70;69.70;;;;;;5106800;28;20028;-43
2022/04/19 00:40:35;;;;;;;7.65;5.82;;;12.70;69.60;;;;;;5096298;28;20019;-41
2022/04/19 00:43:01;;;;;;;7.22;5.60;;;12.70;69.60;;;;;;5107186;28;20031;-41
2022/04/19 00:45:27;;;;;;;7.20;5.57;;;12.70;69.70;;;;;;5096987;28;20020;-42
2022/04/19 00:47:56;;;;;;;7.78;6.20;;;12.60;69.60;;;;;;5107644;28;20548;-44
2022/04/19 00:50:22;;;;;;;7.05;5.72;;;12.60;69.50;;;;;;5094832;28;20020;-42
2022/04/19 00:52:48;;;;;;;7.00;5.78;;;12.60;69.60;;;;;;5108645;28;20431;-41
2022/04/19 00:55:14;;;;;;;7.72;5.78;;;12.60;69.50;;;;;;5093946;28;20558;-42
2022/04/19 00:57:41;;;;;;;7.10;5.60;;;12.60;69.60;;;;;;5107960;28;20024;-42
2022/04/19 01:00:12;;;;;;;7.07;5.97;;;12.60;69.50;;;;;;5097066;28;20042;-41
2022/04/19 01:02:37;;;;;;;6.57;5.80;;;12.50;69.50;;;;;;5105670;28;20072;-42
2022/04/19 01:05:04;;;;;;;6.00;5.28;;;12.50;69.60;;;;;;5099088;28;20024;-42
2022/04/19 01:07:31;;;;;;;9.50;5.28;;;12.50;69.60;;;;;;5104301;28;20059;-40
2022/04/19 01:10:03;;;;;;;7.95;5.82;;;12.50;69.60;;;;;;5100506;28;20376;-42
2022/04/19 01:15:15;;;;;;;7.18;5.50;;;12.40;69.60;;;;;;5099536;28;20043;-42
2022/04/19 01:17:41;;;;;;;7.38;5.63;;;12.40;69.70;;;;;;5092632;28;20028;-41
2022/04/19 01:20:08;;;;;;;7.10;5.25;;;12.30;69.70;;;;;;5092246;28;20459;-42
2022/04/19 01:22:38;;;;;;;7.50;5.38;;;12.30;69.70;;;;;;5093454;28;20020;-42
2022/04/19 01:25:04;;;;;;;8.02;5.68;;;12.30;69.70;;;;;;5089845;28;20103;-42
2022/04/19 01:27:30;;;;;;;9.18;5.57;;;12.30;69.80;;;;;;5095997;28;20028;-42
2022/04/19 01:30:00;;;;;;;5.50;4.45;;;12.20;69.70;;;;;;5088605;28;20031;-41
2022/04/19 01:32:27;;;;;;;7.28;5.75;;;12.20;69.70;;;;;;5084299;28;20068;-40
2022/04/19 01:35:10;;;;;;;8.02;6.10;;;12.20;69.60;;;;;;5106503;28;20019;-41
2022/04/19 01:37:39;;;;;;;7.10;5.55;;;12.20;69.60;;;;;;5094511;28;20023;-41
2022/04/19 01:40:17;;;;;;;6.40;5.35;;;12.20;69.70;;;;;;5105561;28;20463;-40
2022/04/19 01:42:58;;;;;;;6.78;5.38;;;12.20;69.70;;;;;;5095733;28;20065;-40
2022/04/19 01:45:25;;;;;;;7.13;5.20;;;12.10;69.70;;;;;;5105310;28;20028;-40
2022/04/19 01:47:52;;;;;;;6.32;5.05;;;12.10;69.90;;;;;;5095791;28;20031;-41
2022/04/19 01:50:19;;;;;;;6.57;5.15;;;12.00;70.00;;;;;;5104388;28;20019;-41
2022/04/19 01:52:46;;;;;;;7.22;5.50;;;11.90;70.80;;;;;;5095245;28;20538;-42
2022/04/19 01:55:13;;;;;;;7.47;5.72;;;11.90;70.30;;;;;;5106999;28;20375;-42
2022/04/19 01:57:44;;;;;;;6.68;5.30;;;11.90;70.30;;;;;;5098387;28;20490;-42
2022/04/19 02:00:10;;;;;;;7.28;5.00;;;11.80;70.30;;;;;;5087227;28;20566;-43
2022/04/19 02:02:36;;;;;;;8.60;5.97;;;11.80;70.30;;;;;;5098325;28;20399;-41
2022/04/19 02:05:02;;;;;;;6.25;5.40;;;11.80;70.20;;;;;;5086525;28;20035;-42
2022/04/19 02:07:28;;;;;;;6.75;5.38;;;11.80;70.30;;;;;;5098068;28;20027;-40
2022/04/19 02:09:53;;;;;;;6.70;5.75;;;11.80;70.30;;;;;;5087609;28;20024;-41
2022/04/19 02:12:19;;;;;;;7.72;4.82;;;11.70;70.40;;;;;;5094883;28;20035;-39
2022/04/19 02:14:45;;;;;;;6.85;5.15;;;11.70;70.50;;;;;;5089979;28;20024;-42
2022/04/19 02:17:11;;;;;;;6.50;5.20;;;11.60;70.60;;;;;;5088629;28;20016;-44
2022/04/19 02:19:36;;;;;;;6.97;5.43;;;11.60;70.80;;;;;;5085419;28;20116;-39
2022/04/19 02:22:06;;;;;;;8.65;5.20;;;11.50;71.00;;;;;;5094033;28;20047;-40
2022/04/19 02:24:33;;;;;;;6.85;5.28;;;11.50;71.10;;;;;;5098193;28;20024;-42
2022/04/19 02:26:58;;;;;;;9.10;5.38;;;11.40;71.20;;;;;;5104149;28;20019;-41
2022/04/19 02:29:25;;;;;;;6.85;6.07;;;11.40;71.50;;;;;;5095429;28;20022;-39
2022/04/19 02:31:51;;;;;;;6.57;5.72;;;11.30;71.60;;;;;;5105239;28;20111;-41
2022/04/19 02:34:18;;;;;;;6.68;5.22;;;11.30;71.90;;;;;;5093924;28;20020;-42
2022/04/19 02:36:44;;;;;;;8.15;5.90;;;11.20;71.90;;;;;;5104971;28;20359;-41
2022/04/19 02:39:10;;;;;;;8.52;6.03;;;11.20;72.10;;;;;;5093545;28;20023;-41
2022/04/19 02:41:36;;;;;;;7.70;6.05;;;11.10;72.20;;;;;;5105760;28;20026;-41
2022/04/19 02:44:02;;;;;;;8.02;5.88;;;11.10;72.30;;;;;;5092972;28;20027;-42
2022/04/19 02:46:29;;;;;;;8.15;6.38;;;11.10;72.30;;;;;;5104965;28;20042;-42
2022/04/19 02:48:56;;;;;;;8.10;6.20;;;11.10;72.20;;;;;;5094248;28;20031;-40
2022/04/19 02:51:21;;;;;;;6.47;5.70;;;11.10;72.00;;;;;;5105553;28;20047;-38
2022/04/19 02:53:47;;;;;;;7.45;5.93;;;11.10;71.90;;;;;;5095552;28;20071;-40
2022/04/19 02:56:12;;;;;;;8.70;6.20;;;11.10;71.90;;;;;;5102560;28;20457;-41
2022/04/19 02:58:38;;;;;;;8.00;5.97;;;11.10;72.00;;;;;;5098062;28;20589;-42
2022/04/19 03:01:04;;;;;;;8.13;6.25;;;11.10;72.10;;;;;;5100259;28;20466;-42
2022/04/19 03:03:30;;;;;;;8.10;6.50;;;11.00;72.30;;;;;;5100461;28;20815;-41
2022/04/19 03:05:57;;;;;;;8.93;6.60;;;11.00;72.60;;;;;;5098402;28;20043;-40
2022/04/19 03:08:24;;;;;;;7.90;6.32;;;10.90;72.70;;;;;;5103168;28;20024;-41
2022/04/19 03:10:50;;;;;;;8.32;6.32;;;10.90;72.90;;;;;;5095805;28;20895;-41
2022/04/19 03:13:16;;;;;;;8.10;6.75;;;10.80;73.20;;;;;;5104502;28;20098;-37
2022/04/19 03:15:42;;;;;;;7.63;6.00;;;10.80;73.40;;;;;;5092002;28;20028;-42
2022/04/19 03:18:08;;;;;;;9.43;6.65;;;10.70;73.60;;;;;;5094027;28;20046;-41
2022/04/19 03:20:34;;;;;;;8.40;6.25;;;10.70;73.70;;;;;;5096510;28;20468;-41
2022/04/19 03:28:27;;;;;;;8.30;6.07;;;10.60;74.00;;;;;;5103295;28;20486;-41
2022/04/19 03:30:53;;;;;;;7.28;5.72;;;10.60;73.80;;;;;;5094414;28;20020;-40
2022/04/19 03:33:18;;;;;;;8.30;5.82;;;10.60;73.70;;;;;;5105538;28;20047;-41
2022/04/19 03:35:44;;;;;;;8.70;6.68;;;10.70;73.80;;;;;;5091986;28;20726;-39
2022/04/19 03:38:09;;;;;;;9.07;6.40;;;10.60;73.80;;;;;;5105755;28;20043;-42
2022/04/19 03:40:35;;;;;;;8.13;6.32;;;10.50;73.80;;;;;;5092181;28;20028;-41
2022/04/19 03:43:02;;;;;;;8.52;6.07;;;10.50;73.90;;;;;;5104403;28;20106;-38
2022/04/19 03:45:28;;;;;;;7.53;6.10;;;10.50;73.90;;;;;;5095619;28;20070;-42
2022/04/19 03:47:53;;;;;;;9.70;5.78;;;10.50;74.00;;;;;;5105912;28;20062;-39
2022/04/19 03:50:19;;;;;;;8.40;6.18;;;10.40;74.00;;;;;;5102249;28;20414;-41
2022/04/19 03:52:44;;;;;;;9.18;6.63;;;10.40;74.00;;;;;;5103003;28;20038;-39
2022/04/19 03:55:11;;;;;;;8.50;6.45;;;10.50;74.20;;;;;;5104833;28;20039;-39
2022/04/19 03:57:39;;;;;;;9.57;6.80;;;10.50;74.30;;;;;;5100063;28;20035;-41
2022/04/19 04:00:06;;;;;;;8.55;6.30;;;10.40;74.40;;;;;;5106611;28;20517;-38
2022/04/19 04:02:32;;;;;;;8.75;6.78;;;10.40;74.60;;;;;;5098424;28;20020;-42
2022/04/19 04:04:57;;;;;;;10.13;7.07;;;10.40;74.90;;;;;;5107321;28;20032;-41
2022/04/19 04:07:26;;;;;;;8.40;6.80;;;10.30;75.00;;;;;;5097351;28;20120;-42
2022/04/19 04:09:52;;;;;;;8.55;6.88;;;10.30;75.20;;;;;;5107696;28;20028;-41
2022/04/19 04:12:17;;;;;;;9.60;7.10;;;10.30;75.30;;;;;;5096551;28;20475;-41
2022/04/19 04:14:43;;;;;;;8.88;6.53;;;10.20;75.50;;;;;;5108658;28;20042;-40
2022/04/19 04:17:09;;;;;;;7.68;6.28;;;10.20;75.70;;;;;;5094202;28;20012;-41
2022/04/19 04:19:34;;;;;;;7.65;6.47;;;10.20;75.80;;;;;;5087940;28;20122;-41
2022/04/19 04:22:00;;;;;;;8.07;6.18;;;10.20;75.80;;;;;;5100840;28;20034;-41
2022/04/19 04:24:26;;;;;;;8.25;6.97;;;10.20;75.90;;;;;;5088444;28;20031;-41
2022/04/19 04:26:52;;;;;;;8.23;6.18;;;10.10;76.20;;;;;;5097570;28;20605;-38
2022/04/19 04:29:17;;;;;;;7.47;6.38;;;10.00;76.20;;;;;;5090938;28;20479;-42
2022/04/19 04:31:43;;;;;;;7.05;5.82;;;10.00;76.40;;;;;;5094344;28;20019;-40
2022/04/19 04:34:09;;;;;;;8.15;6.30;;;9.90;76.50;;;;;;5093880;28;20054;-40
2022/04/19 04:36:35;;;;;;;9.02;6.70;;;10.00;76.50;;;;;;5092992;28;20031;-41
2022/04/19 04:39:00;;;;;;;9.38;7.05;;;10.00;76.40;;;;;;5095881;28;20119;-42
2022/04/19 04:41:26;;;;;;;9.25;7.32;;;10.00;76.30;;;;;;5089144;28;20052;-42
2022/04/19 04:43:52;;;;;;;11.43;7.28;;;10.10;76.20;;;;;;5099580;28;20020;-38
2022/04/19 04:51:46;;;;;;;9.60;6.80;;;10.30;75.60;;;;;;5106174;28;20053;-41
2022/04/19 04:54:11;;;;;;;9.55;7.07;;;10.40;75.50;;;;;;5096965;28;20027;-42
2022/04/19 04:56:37;;;;;;;9.85;7.18;;;10.40;75.50;;;;;;5105675;28;20035;-43
2022/04/19 04:59:03;;;;;;;9.30;6.53;;;10.40;75.30;;;;;;5095849;28;20470;-42
2022/04/19 05:01:28;;;;;;;9.38;6.57;;;10.50;75.30;;;;;;5106934;28;20039;-42
2022/04/19 05:03:54;;;;;;;9.25;7.13;;;10.50;75.20;;;;;;5095466;28;20047;-42
2022/04/19 05:06:19;;;;;;;9.93;7.25;;;10.60;75.20;;;;;;5108216;28;20024;-40
2022/04/19 05:08:45;;;;;;;10.02;6.35;;;10.60;75.20;;;;;;5094237;28;20035;-42
2022/04/19 05:11:10;;;;;;;8.98;6.43;;;10.60;75.20;;;;;;5108181;28;20730;-42
2022/04/19 05:13:36;;;;;;;9.02;6.28;;;10.60;75.10;;;;;;5095785;28;20065;-41
2022/04/19 05:16:01;;;;;;;10.05;7.00;;;10.70;75.10;;;;;;5106545;28;20540;-40
2022/04/19 05:18:27;;;;;;;7.63;6.32;;;10.70;75.00;;;;;;5097613;28;20032;-41
2022/04/19 05:20:53;;;;;;;10.63;6.28;;;10.80;75.00;;;;;;5103252;28;20134;-42
2022/04/19 05:23:20;;;;;;;9.05;6.57;;;10.80;74.80;;;;;;5101117;28;20024;-41
2022/04/19 05:25:46;;;;;;;10.50;6.90;;;10.90;74.70;;;;;;5101799;28;20032;-42
2022/04/19 05:28:12;;;;;;;9.38;7.18;;;10.90;74.60;;;;;;5103419;28;20011;-42
2022/04/19 05:30:37;;;;;;;10.82;7.97;;;11.00;74.60;;;;;;5098279;28;20736;-41
2022/04/19 05:33:03;;;;;;;11.85;7.45;;;11.00;74.50;;;;;;5106308;28;20020;-40
2022/04/19 05:35:29;;;;;;;9.57;7.20;;;11.10;74.40;;;;;;5094774;28;20118;-41
2022/04/19 05:37:55;;;;;;;9.25;6.93;;;11.20;74.30;;;;;;5106217;28;20081;-43
2022/04/19 05:40:21;;;;;;;9.60;7.03;;;11.20;74.20;;;;;;5095911;28;20019;-41
2022/04/19 05:42:47;;;;;;;8.40;6.15;;;11.40;74.10;;;;;;5106169;28;20128;-41
2022/04/19 05:45:13;;;;;;;9.38;6.95;;;11.40;73.90;;;;;;5099387;28;20523;-41
2022/04/19 05:47:38;;;;;;;10.05;7.00;;;11.50;73.80;;;;;;5086956;28;20024;-42
2022/04/19 05:50:04;;;;;;;9.15;7.00;;;11.60;73.70;;;;;;5099205;28;20356;-41
2022/04/19 05:52:30;;;;;;;9.60;6.47;;;11.60;73.70;;;;;;5086257;28;20134;-41
2022/04/19 05:54:55;;;;;;;9.60;6.63;;;11.60;73.50;;;;;;5088837;28;20548;-41
2022/04/19 05:57:21;;;;;;;7.95;6.38;;;11.70;73.60;;;;;;5104009;28;20054;-43
2022/04/19 05:59:46;;;;;;;8.95;6.68;;;11.70;73.50;;;;;;5095726;28;20044;-41
2022/04/19 06:04:57;;;;;;;11.15;7.88;;;11.80;73.50;;;;;;5096724;28;20497;-41
2022/04/19 06:07:24;;;;;;;10.20;7.30;;;11.80;73.40;;;;;;5101900;28;20034;-43
2022/04/19 06:09:50;;;;;;;10.00;6.93;;;11.90;73.30;;;;;;5099746;28;20031;-43
2022/04/19 06:12:16;;;;;;;9.07;6.57;;;12.00;73.40;;;;;;5098937;28;20020;-41
2022/04/19 06:14:41;;;;;;;10.70;6.68;;;12.10;73.40;;;;;;5102925;28;20069;-40
2022/04/19 06:17:11;;;;;;;11.40;7.32;;;12.10;73.30;;;;;;5092910;28;20525;-41
2022/04/19 06:19:37;;;;;;;9.95;6.45;;;12.20;73.30;;;;;;5086329;28;20039;-41
2022/04/19 06:22:04;;;;;;;10.27;7.05;;;12.20;73.40;;;;;;5096840;28;20036;-41
2022/04/19 06:24:29;;;;;;;12.65;7.93;;;12.20;73.30;;;;;;5085792;28;20032;-42
2022/04/19 06:26:55;;;;;;;11.88;7.75;;;12.30;73.30;;;;;;5096511;28;20073;-41
2022/04/19 06:29:21;;;;;;;11.50;8.05;;;12.40;73.30;;;;;;5086316;28;20158;-48
2022/04/19 06:31:46;;;;;;;10.93;7.20;;;12.40;73.10;;;;;;5095592;28;20020;-43
2022/04/19 06:34:12;;;;;;;10.35;7.18;;;12.50;73.10;;;;;;5093521;28;20049;-40
2022/04/19 06:36:38;;;;;;;9.85;6.57;;;12.50;73.10;;;;;;5091958;28;20119;-43
2022/04/19 06:39:04;;;;;;;11.75;7.70;;;12.60;73.00;;;;;;5104471;28;20042;-41
2022/04/19 06:41:30;;;;;;;9.02;6.53;;;12.70;72.90;;;;;;5092569;28;20024;-41
2022/04/19 06:43:58;;;;;;;9.35;6.70;;;12.70;72.80;;;;;;5102842;28;20169;-40
2022/04/19 06:46:26;;;;;;;8.65;6.20;;;12.80;72.90;;;;;;5094952;28;20016;-43
2022/04/19 06:48:59;;;;;;;8.05;5.93;;;12.80;72.90;;;;;;5101694;28;20020;-42
2022/04/19 06:51:25;;;;;;;7.82;5.70;;;12.80;73.10;;;;;;5097304;28;20107;-43
2022/04/19 06:53:51;;;;;;;7.57;5.15;;;12.90;73.30;;;;;;5104834;28;20035;-42
2022/04/19 06:56:16;;;;;;;7.55;6.13;;;12.90;73.50;;;;;;5100305;28;20058;-41
2022/04/19 06:58:44;;;;;;;8.02;6.13;;;13.00;73.20;;;;;;5098308;28;20756;-42
2022/04/19 07:01:10;;;;;;;8.07;6.13;;;13.00;73.10;;;;;;5102971;28;20016;-43
2022/04/19 07:03:36;;;;;;;7.18;5.57;;;13.00;73.10;;;;;;5095604;28;20038;-41
2022/04/19 07:06:02;;;;;;;6.80;5.60;;;13.10;72.90;;;;;;5104327;28;20421;-42
2022/04/19 07:08:28;;;;;;;7.20;5.20;;;13.20;72.80;;;;;;5094199;28;20510;-39
2022/04/19 07:10:56;;;;;;;7.40;5.30;;;13.20;72.60;;;;;;5091784;28;20122;-40
2022/04/19 07:13:23;;;;;;;8.75;5.50;;;13.30;72.40;;;;;;5092770;28;20028;-41
2022/04/19 07:15:49;;;;;;;8.63;6.38;;;13.30;72.10;;;;;;5085690;28;20115;-41
2022/04/19 07:18:15;;;;;;;10.68;6.13;;;13.40;71.80;;;;;;5089630;28;20147;-42
2022/04/19 07:28:52;;;;;;;7.63;5.40;;;13.70;71.30;;;;;;5093956;28;20046;-41
2022/04/19 07:31:18;;;;;;;6.38;4.88;;;13.70;71.30;;;;;;5105389;28;20491;-40
2022/04/19 07:33:43;;;;;;;6.72;5.07;;;13.70;71.30;;;;;;5092787;28;20077;-39
2022/04/19 07:36:09;;;;;;;7.07;5.10;;;13.80;71.40;;;;;;5093624;28;20452;-41
2022/04/19 07:38:34;;;;;;;7.28;5.30;;;13.80;71.30;;;;;;5096522;28;20123;-43
2022/04/19 07:41:00;;;;;;;6.85;4.90;;;13.90;71.20;;;;;;5085610;28;20032;-41
2022/04/19 07:43:25;;;;;;;9.00;5.85;;;13.90;71.10;;;;;;5094190;28;20039;-39
2022/04/19 07:45:51;;;;;;;8.32;4.85;;;14.00;71.70;;;;;;5088512;28;20024;-40
2022/04/19 07:48:18;;;;;;;5.90;4.65;;;14.00;71.10;;;;;;5091839;28;20016;-42
2022/04/19 07:50:44;;;;;;;6.85;4.68;;;14.10;71.10;;;;;;5089451;28;20047;-42
2022/04/19 07:53:09;;;;;;;6.32;4.40;;;14.20;71.00;;;;;;5089967;28;20374;-43
2022/04/19 07:55:36;;;;;;;6.82;4.60;;;14.20;70.80;;;;;;5091590;28;20048;-40
2022/04/19 07:58:02;;;;;;;7.57;4.72;;;14.30;70.70;;;;;;5087033;28;20715;-42
2022/04/19 08:00:28;;;;;;;6.75;4.80;;;14.30;70.40;;;;;;5095489;28;20032;-42
2022/04/19 08:02:55;;;;;;;7.68;5.13;;;14.40;69.90;;;;;;5095325;28;20058;-42
2022/04/19 08:05:21;;;;;;;6.70;4.53;;;14.40;69.60;;;;;;5095929;28;20020;-40
2022/04/19 08:07:50;;;;;;;6.85;4.40;;;14.50;69.50;;;;;;5085661;28;20546;-41
2022/04/19 08:10:17;;;;;;;6.35;4.43;;;14.50;69.70;;;;;;5091367;28;20028;-41
2022/04/19 08:12:43;;;;;;;5.90;4.10;;;14.60;69.80;;;;;;5084602;28;20391;-42
2022/04/19 08:15:09;;;;;;;5.63;4.22;;;14.60;69.80;;;;;;5097073;28;20024;-43
2022/04/19 08:17:36;;;;;;;6.00;4.13;;;14.70;70.00;;;;;;5084558;28;20052;-42
2022/04/19 08:20:03;;;;;;;5.45;4.20;;;14.80;69.80;;;;;;5097341;28;20067;-41
2022/04/19 08:22:29;;;;;;;5.88;4.22;;;14.80;69.60;;;;;;5084351;28;20027;-42
2022/04/19 08:24:54;;;;;;;5.35;3.95;;;14.90;69.40;;;;;;5094468;28;20024;-40
2022/04/19 08:27:23;;;;;;;6.40;4.57;;;14.90;69.00;;;;;;5084889;28;20252;-41
2022/04/19 08:29:49;;;;;;;6.13;4.10;;;14.90;68.90;;;;;;5092886;28;20028;-40
2022/04/19 08:32:15;;;;;;;6.25;4.35;;;15.00;68.70;;;;;;5088314;28;20373;-41
2022/04/19 08:34:41;;;;;;;5.68;4.03;;;15.10;68.20;;;;;;5092340;28;20106;-43
2022/04/19 08:37:09;;;;;;;5.20;4.25;;;15.10;68.30;;;;;;5095274;28;20013;-39
2022/04/19 08:39:34;;;;;;;5.22;3.80;;;15.10;68.40;;;;;;5090282;28;20458;-40
2022/04/19 08:42:00;;;;;;;4.97;3.45;;;15.10;68.40;;;;;;5097608;28;20028;-42
2022/04/19 08:44:25;;;;;;;7.05;3.97;;;15.20;68.50;;;;;;5088901;28;20736;-41
2022/04/19 08:46:54;;;;;;;5.57;3.65;;;15.20;68.10;;;;;;5101416;28;20023;-41
2022/04/19 08:49:20;;;;;;;6.00;3.75;;;15.30;67.80;;;;;;5106181;28;20026;-40
2022/04/19 08:51:49;;;;;;;4.97;3.58;;;15.40;68.10;;;;;;5096821;28;20062;-41
2022/04/19 08:59:46;;;;;;;5.32;3.75;;;15.50;67.80;;;;;;5105597;28;20050;-41
2022/04/19 09:02:23;;;;;;;6.20;4.00;;;15.50;67.80;;;;;;5097403;28;20113;-40
2022/04/19 09:04:50;;;;;;;7.47;4.13;;;15.60;68.20;;;;;;5106503;28;20049;-42
2022/04/19 09:07:36;;;;;;;6.43;4.05;;;15.60;68.60;;;;;;5095605;28;20043;-39
2022/04/19 09:10:01;;;;;;;5.40;3.45;;;15.60;68.70;;;;;;5105197;28;20075;-40
2022/04/19 09:12:27;;;;;;;5.13;3.45;;;15.70;68.90;;;;;;5091731;28;20062;-40
2022/04/19 09:15:03;;;;;;;6.75;3.90;;;15.70;68.90;;;;;;5087499;28;20048;-42
2022/04/19 09:17:34;;;;;;;5.13;3.75;;;15.80;68.90;;;;;;5093138;28;20023;-43
2022/04/19 09:20:19;;;;;;;6.68;3.92;;;15.80;68.50;;;;;;5086602;28;20048;-41
2022/04/19 09:22:59;;;;;;;5.45;3.75;;;15.80;68.30;;;;;;5095196;28;20479;-41
2022/04/19 09:25:26;;;;;;;5.63;3.72;;;15.90;68.40;;;;;;5087489;28;20830;-41
2022/04/19 09:27:54;;;;;;;6.10;3.70;;;15.90;68.60;;;;;;5098579;28;20028;-41
2022/04/19 09:30:27;;;;;;;5.10;3.80;;;16.00;68.70;;;;;;5086979;28;20070;-42
2022/04/19 09:33:14;;;;;;;5.10;3.90;;;16.00;68.70;;;;;;5099721;28;20024;-41
2022/04/19 09:35:45;;;;;;;5.22;3.88;;;16.10;68.70;;;;;;5086590;28;20012;-41
2022/04/19 09:38:12;;;;;;;5.15;3.50;;;16.20;68.50;;;;;;5099007;28;20040;-40
2022/04/19 09:40:46;;;;;;;6.63;4.18;;;16.20;68.20;;;;;;5086668;28;20030;-43
2022/04/19 09:43:17;;;;;;;4.65;3.53;;;16.20;68.10;;;;;;5098068;28;20019;-42
2022/04/19 09:45:58;;;;;;;6.03;3.50;;;16.30;68.00;;;;;;5106511;28;20455;-40
2022/04/19 09:48:27;;;;;;;4.43;3.42;;;16.40;67.50;;;;;;5093704;28;20388;-40
2022/04/19 09:50:59;;;;;;;5.25;3.38;;;16.40;67.40;;;;;;5107389;28;20023;-43
2022/04/19 09:53:27;;;;;;;6.55;4.05;;;16.40;67.20;;;;;;5094247;28;20592;-42
2022/04/19 09:55:54;;;;;;;5.40;3.80;;;16.40;66.20;;;;;;5106578;28;20079;-42
2022/04/19 09:58:21;;;;;;;6.07;3.65;;;16.40;64.80;;;;;;5098502;28;20760;-42
2022/04/19 10:00:48;;;;;;;5.57;3.90;;;16.40;64.80;;;;;;5086728;28;20024;-38
2022/04/19 10:08:45;;;;;;;5.80;3.53;;;16.40;64.20;;;;;;5096682;28;20066;-41
2022/04/19 10:11:12;;;;;;;5.22;3.63;;;16.50;64.30;;;;;;5085865;28;20111;-41
2022/04/19 10:13:39;;;;;;;5.18;3.38;;;16.60;64.90;;;;;;5097635;28;20107;-41
2022/04/19 10:16:13;;;;;;;5.65;3.65;;;16.70;65.20;;;;;;5088002;28;20028;-40
2022/04/19 10:18:47;;;;;;;6.65;3.60;;;16.80;65.40;;;;;;5097890;28;20131;-41
2022/04/19 10:21:38;;;;;;;5.30;3.83;;;16.80;65.70;;;;;;5085378;28;20105;-42
2022/04/19 10:24:12;;;;;;;6.22;3.78;;;16.90;66.10;;;;;;5091539;28;20142;-42
2022/04/19 10:26:45;;;;;;;6.75;4.50;;;16.90;66.20;;;;;;5064960;28;20025;-42
2022/04/19 10:29:26;;;;;;;6.35;4.18;;;17.00;65.30;;;;;;5091814;28;20087;-41
2022/04/19 10:32:01;;;;;;;5.82;4.15;;;17.00;65.50;;;;;;5083358;28;20020;-41
2022/04/19 10:34:29;;;;;;;6.90;4.88;;;17.00;65.70;;;;;;5097015;28;20020;-40
2022/04/19 10:37:01;;;;;;;7.82;4.70;;;17.00;64.90;;;;;;5086611;28;20077;-41
2022/04/19 10:39:32;;;;;;;6.85;4.60;;;17.00;65.10;;;;;;5095074;28;20390;-39
2022/04/19 10:42:05;;;;;;;5.85;4.03;;;17.00;65.70;;;;;;5087163;28;20021;-40
2022/04/19 10:44:32;;;;;;;5.50;4.32;;;17.10;65.80;;;;;;5094117;28;20051;-41
2022/04/19 10:47:23;;;;;;;6.72;4.50;;;17.10;65.80;;;;;;5088998;28;20097;-41
2022/04/19 10:50:05;;;;;;;7.20;4.45;;;17.20;66.20;;;;;;5085885;28;20038;-42
2022/04/19 10:52:37;;;;;;;5.82;4.07;;;17.30;66.00;;;;;;5064567;28;20060;-41
2022/04/19 10:55:18;;;;;;;6.30;3.80;;;17.30;66.00;;;;;;5092338;28;20038;-42
2022/04/19 10:58:16;;;;;;;5.25;3.45;;;17.30;65.90;;;;;;5078771;28;20051;-42
2022/04/19 11:00:41;;;;;;;5.85;3.50;;;17.40;65.80;;;;;;5094689;28;20104;-43
2022/04/19 11:03:17;;;;;;;5.95;3.65;;;17.40;65.80;;;;;;5099975;28;20024;-40
2022/04/19 11:05:47;;;;;;;5.18;3.45;;;17.50;65.90;;;;;;5089436;28;20032;-40
2022/04/19 11:08:25;;;;;;;5.93;3.92;;;17.50;65.80;;;;;;5102433;28;20038;-42
2022/04/19 11:11:03;;;;;;;5.93;3.70;;;17.60;65.70;;;;;;5091355;28;20020;-42
2022/04/19 11:13:31;;;;;;;5.88;4.30;;;17.60;65.70;;;;;;5089454;28;20483;-42
2022/04/19 11:16:11;;;;;;;5.53;3.70;;;17.60;65.90;;;;;;5088861;28;20039;-42
2022/04/19 11:18:40;;;;;;;7.28;4.15;;;17.70;65.90;;;;;;5089285;28;20036;-42
2022/04/19 11:21:13;;;;;;;7.18;4.38;;;17.80;66.30;;;;;;5095291;28;20507;-41
2022/04/19 11:23:46;;;;;;;6.70;3.97;;;17.80;66.10;;;;;;5092959;28;20448;-38
2022/04/19 11:26:30;;;;;;;6.22;4.00;;;17.90;65.70;;;;;;5085446;28;20475;-40
2022/04/19 11:29:08;;;;;;;5.38;3.42;;;17.90;65.70;;;;;;5081787;28;20837;-39
2022/04/19 11:31:43;;;;;;;6.13;4.03;;;17.90;65.80;;;;;;5094015;28;20096;-41
2022/04/19 11:34:13;;;;;;;6.13;3.95;;;17.90;65.70;;;;;;5081514;28;20543;-43
2022/04/19 11:36:38;;;;;;;6.78;4.47;;;17.90;65.50;;;;;;5086588;28;20055;-42
2022/04/19 11:39:04;;;;;;;5.60;3.92;;;17.90;65.10;;;;;;5100191;28;20024;-41
2022/04/19 11:46:44;;;;;;;6.75;4.28;;;18.00;65.40;;;;;;5101339;28;20031;-38
2022/04/19 11:49:22;;;;;;;5.53;3.85;;;18.10;65.10;;;;;;5084620;28;20024;-42
2022/04/19 11:51:49;;;;;;;8.43;4.55;;;18.10;65.30;;;;;;5092566;28;20028;-42
2022/04/19 11:54:28;;;;;;;6.63;4.43;;;18.10;63.10;;;;;;5098946;28;20062;-42
2022/04/19 11:56:59;;;;;;;6.82;4.63;;;18.00;63.40;;;;;;5092742;28;20613;-43
2022/04/19 11:59:27;;;;;;;4.38;3.45;;;18.00;63.60;;;;;;5081444;28;21404;-40
2022/04/19 12:01:53;;;;;;;5.65;3.88;;;18.10;64.00;;;;;;5089314;28;20016;-41
2022/04/19 12:04:19;;;;;;;4.78;3.40;;;18.10;64.30;;;;;;5095785;28;20081;-41
2022/04/19 12:06:50;;;;;;;5.47;3.78;;;18.20;64.50;;;;;;5087385;28;20015;-40
2022/04/19 12:09:17;;;;;;;6.40;3.90;;;18.30;64.00;;;;;;5100417;28;20106;-41
2022/04/19 12:11:46;;;;;;;6.60;4.07;;;18.20;62.70;;;;;;5102462;28;20273;-41
2022/04/19 12:14:29;;;;;;;5.97;4.13;;;18.20;62.20;;;;;;5097477;28;20059;-42
2022/04/19 12:17:00;;;;;;;5.18;4.07;;;18.30;62.00;;;;;;5088337;28;20133;-42
2022/04/19 12:19:39;;;;;;;4.60;3.70;;;18.20;62.10;;;;;;5099267;28;20472;-40
2022/04/19 12:22:22;;;;;;;6.82;3.83;;;18.10;62.60;;;;;;5094709;28;20040;-42
2022/04/19 12:24:53;;;;;;;;;;;18.10;62.70;;;;;;5102173;28;20031;-41
2022/04/19 12:27:39;;;;;;;6.10;3.75;;;18.10;62.70;;;;;;5100894;28;19908;-43
2022/04/19 12:30:08;;;;;;;4.50;3.30;;;18.10;63.00;;;;;;5092003;28;20050;-42
2022/04/19 12:32:55;;;;;;;6.32;3.30;;;18.20;62.80;;;;;;5091350;28;20067;-40
2022/04/19 12:35:39;;;;;;;3.45;2.92;;;18.20;62.30;;;;;;5068190;28;20024;-40
2022/04/19 12:38:18;;;;;;;3.90;2.90;;;18.30;62.30;;;;;;5093978;28;20418;-41
2022/04/19 12:40:44;;;;;;;6.50;3.92;;;18.30;62.10;;;;;;5097822;28;20107;-41
2022/04/19 12:43:10;;;;;;;4.60;4.00;;;18.40;62.30;;;;;;5098867;28;20064;-39
2022/04/19 12:45:38;;;;;;;4.13;2.95;;;18.40;62.30;;;;;;5095682;28;20027;-41
2022/04/19 12:48:05;;;;;;;4.78;3.50;;;18.40;62.30;;;;;;5089409;28;20050;-40
2022/04/19 12:50:31;;;;;;;4.82;3.58;;;18.50;62.50;;;;;;5100341;28;20372;-42
2022/04/19 12:52:56;;;;;;;3.38;3.08;;;18.60;62.60;;;;;;5102020;28;20031;-42
2022/04/19 12:55:30;;;;;;;5.32;3.53;;;18.60;62.60;;;;;;5090902;28;20522;-43
2022/04/19 12:58:07;;;;;;;3.88;3.00;;;18.60;62.50;;;;;;5100577;28;20032;-42
2022/04/19 13:00:33;;;;;;;4.45;2.50;;;18.60;62.90;;;;;;5094839;28;20059;-40
2022/04/19 13:03:01;;;;;;;3.05;2.38;;;18.60;63.40;;;;;;5095825;28;20044;-41
2022/04/19 13:12:16;;;;;;;3.08;2.45;;;18.60;64.00;;;;;;5095859;28;20032;-40
2022/04/19 13:13:41;;;;;;;2.38;2.17;;;18.70;62.90;;;;;;5086587;28;20031;-44
2022/04/19 13:16:06;;;;;;;2.72;2.35;;;18.70;62.80;;;;;;5094951;28;20063;-41
2022/04/19 13:18:32;;;;;;;2.40;2.20;;;18.60;62.40;;;;;;5088328;28;20550;-42
2022/04/19 13:20:57;;;;;;;4.45;2.65;;;18.60;62.50;;;;;;5091307;28;20702;-42
2022/04/19 13:23:23;;;;;;;4.57;2.58;;;18.60;62.90;;;;;;5085110;28;20024;-42
2022/04/19 13:25:48;;;;;;;6.13;2.50;;;18.70;63.20;;;;;;5094085;28;20031;-43
2022/04/19 13:28:14;;;;;;;2.72;1.92;;;18.80;63.10;;;;;;5085357;28;20036;-42
2022/04/19 13:30:40;;;;;;;2.55;2.00;;;18.80;63.00;;;;;;5093345;28;20627;-40
2022/04/19 13:33:06;;;;;;;2.47;2.20;;;18.90;63.10;;;;;;5093541;28;20024;-40
2022/04/19 13:35:34;;;;;;;2.08;1.80;;;18.90;63.00;;;;;;5098398;28;20042;-42
2022/04/19 13:40:44;;;;;;;2.70;1.95;;;18.90;62.10;;;;;;5094938;28;20701;-44